createdAt,value
2022-09-27T11:04:32.199Z,986.55
2022-09-27T11:05:33.165Z,986.54
2022-09-27T11:06:44.977Z,986.56
2022-09-27T11:07:33.297Z,986.61
2022-09-27T11:08:39.094Z,986.51
2022-09-27T11:09:34.473Z,986.45
2022-09-27T11:10:37.162Z,986.47
2022-09-27T11:11:34.609Z,986.48
2022-09-27T11:12:33.865Z,986.55
2022-09-27T11:13:33.867Z,986.48
2022-09-27T11:14:33.949Z,986.50
2022-09-27T11:15:34.325Z,986.53
2022-09-27T11:16:34.149Z,986.59
2022-09-27T11:17:34.197Z,986.53
2022-09-27T11:18:34.237Z,986.53
2022-09-27T11:19:34.285Z,986.53
2022-09-27T11:20:34.393Z,986.56
2022-09-27T11:21:34.477Z,986.52
2022-09-27T11:22:34.669Z,986.51
2022-09-27T11:23:34.733Z,986.58
2022-09-27T11:24:34.795Z,986.54
2022-09-27T11:25:34.824Z,986.59
2022-09-27T11:26:34.873Z,986.59
2022-09-27T11:27:34.942Z,986.61
2022-09-27T11:28:35.054Z,986.62
2022-09-27T11:29:35.086Z,986.64
2022-09-27T11:30:35.170Z,986.64
2022-09-27T11:31:35.266Z,986.63
2022-09-27T11:32:35.357Z,986.66
2022-09-27T11:33:35.466Z,986.67
2022-09-27T11:34:35.509Z,986.68
2022-09-27T11:35:35.645Z,986.67
2022-09-27T11:36:35.685Z,986.70
2022-09-27T11:37:35.760Z,986.75
2022-09-27T11:38:52.368Z,986.79
2022-09-27T11:39:35.954Z,986.76
2022-09-27T11:40:36.041Z,986.72
2022-09-27T11:41:36.116Z,986.85
2022-09-27T11:42:36.182Z,986.84
2022-09-27T11:43:36.288Z,986.84
2022-09-27T11:44:36.388Z,986.78
2022-09-27T11:45:56.294Z,986.81
2022-09-27T11:46:41.954Z,986.81
2022-09-27T11:47:36.754Z,986.81
2022-09-27T11:48:36.902Z,986.77
2022-09-27T11:49:36.790Z,986.81
2022-09-27T11:50:36.849Z,986.79
2022-09-27T11:51:37.066Z,986.82
2022-09-27T11:52:37.036Z,986.80
2022-09-27T11:53:37.130Z,986.79
2022-09-27T11:54:37.216Z,986.76
2022-09-27T11:55:37.325Z,986.84
2022-09-27T11:56:37.391Z,986.85
2022-09-27T11:57:37.460Z,986.89
2022-09-27T11:58:37.688Z,986.90
2022-09-27T11:59:37.635Z,986.92
2022-09-27T12:00:37.717Z,986.91
2022-09-27T12:01:37.877Z,986.90
2022-09-27T12:02:37.956Z,986.87
2022-09-27T12:03:38.001Z,986.91
2022-09-27T12:04:38.059Z,986.95
2022-09-27T12:05:38.176Z,986.92
2022-09-27T12:06:38.375Z,986.89
2022-09-27T12:07:38.287Z,986.87
2022-09-27T12:08:38.389Z,986.86
2022-09-27T12:09:38.483Z,986.85
2022-09-27T12:10:38.571Z,986.85
2022-09-27T12:11:38.667Z,986.93
2022-09-27T12:12:38.746Z,986.91
2022-09-27T12:13:38.818Z,986.99
2022-09-27T12:14:38.968Z,986.92
2022-09-27T12:15:39.063Z,986.90
2022-09-27T12:16:39.101Z,986.96
2022-09-27T12:17:39.176Z,986.92
2022-09-27T12:18:39.290Z,986.91
2022-09-27T12:19:39.352Z,986.93
2022-09-27T12:20:39.437Z,986.97
2022-09-27T12:21:39.520Z,987.00
2022-09-27T12:22:58.089Z,986.94
2022-09-27T12:23:39.746Z,986.90
2022-09-27T12:24:39.781Z,986.97
2022-09-27T12:25:39.900Z,987.00
2022-09-27T12:26:39.949Z,986.96
2022-09-27T12:27:40.042Z,987.00
2022-09-27T12:28:40.121Z,986.99
2022-09-27T12:29:40.196Z,986.98
2022-09-27T12:30:40.303Z,986.93
2022-09-27T12:31:40.439Z,987.03
2022-09-27T12:32:40.462Z,986.92
2022-09-27T12:33:40.585Z,986.93
2022-09-27T12:34:40.681Z,986.99
2022-09-27T12:35:40.787Z,986.95
2022-09-27T12:36:40.818Z,986.94
2022-09-27T12:37:40.911Z,986.98
2022-09-27T12:38:41.007Z,986.96
2022-09-27T12:39:41.105Z,986.92
2022-09-27T12:40:41.147Z,986.89
2022-09-27T12:41:41.214Z,986.98
2022-09-27T12:43:42.893Z,986.95
2022-09-27T12:44:41.509Z,986.91
2022-09-27T12:45:41.511Z,986.89
2022-09-27T12:46:41.668Z,986.98
2022-09-27T12:47:41.671Z,987.06
2022-09-27T12:48:41.759Z,987.07
2022-09-27T12:49:41.875Z,987.05
2022-09-27T12:50:41.895Z,987.16
2022-09-27T12:51:41.979Z,987.21
2022-09-27T12:52:42.072Z,987.16
2022-09-27T12:53:42.157Z,987.22
2022-09-27T12:54:42.263Z,987.22
2022-09-27T12:55:42.359Z,987.27
2022-09-27T12:56:42.365Z,987.23
2022-09-27T12:57:42.519Z,987.22
2022-09-27T12:58:42.525Z,987.17
2022-09-27T12:59:42.639Z,987.21
2022-09-27T13:00:42.793Z,987.22
2022-09-27T13:01:42.918Z,987.08
2022-09-27T13:03:04.007Z,987.18
2022-09-27T13:03:42.967Z,987.16
2022-09-27T13:04:43.175Z,987.28
2022-09-27T13:05:43.163Z,987.29
2022-09-27T13:06:43.348Z,987.26
2022-09-27T13:07:43.324Z,987.27
2022-09-27T13:08:43.433Z,987.35
2022-09-27T13:09:43.591Z,987.26
2022-09-27T13:10:43.667Z,987.34
2022-09-27T13:11:43.691Z,987.31
2022-09-27T13:12:43.836Z,987.33
2022-09-27T13:13:43.863Z,987.41
2022-09-27T13:14:43.983Z,987.42
2022-09-27T13:15:44.119Z,987.40
2022-09-27T13:16:44.116Z,987.41
2022-09-27T13:17:44.197Z,987.35
2022-09-27T13:18:44.284Z,987.40
2022-09-27T13:19:44.372Z,987.36
2022-09-27T13:20:44.475Z,987.36
2022-09-27T13:21:44.560Z,987.39
2022-09-27T13:22:44.652Z,987.42
2022-09-27T13:23:44.737Z,987.41
2022-09-27T13:24:44.876Z,987.46
2022-09-27T13:25:44.916Z,987.49
2022-09-27T13:26:44.948Z,987.43
2022-09-27T13:27:45.041Z,987.46
2022-09-27T13:28:45.096Z,987.46
2022-09-27T13:29:45.246Z,987.44
2022-09-27T13:30:45.276Z,987.42
2022-09-27T13:31:45.382Z,987.44
2022-09-27T13:32:45.447Z,987.41
2022-09-27T13:33:45.520Z,987.48
2022-09-27T13:34:45.623Z,987.47
2022-09-27T13:35:45.704Z,987.48
2022-09-27T13:36:45.787Z,987.49
2022-09-27T13:37:45.901Z,987.53
2022-09-27T13:38:45.924Z,987.50
2022-09-27T13:39:46.000Z,987.54
2022-09-27T13:40:46.151Z,987.57
2022-09-27T13:41:46.167Z,987.57
2022-09-27T13:42:46.248Z,987.59
2022-09-27T13:43:46.341Z,987.55
2022-09-27T13:44:46.408Z,987.56
2022-09-27T13:45:46.536Z,987.61
2022-09-27T13:46:50.912Z,987.57
2022-09-27T13:47:46.671Z,987.71
2022-09-27T13:48:46.756Z,987.67
2022-09-27T13:49:46.829Z,987.68
2022-09-27T13:50:46.924Z,987.69
2022-09-27T13:51:46.983Z,987.67
2022-09-27T13:52:47.060Z,987.68
2022-09-27T13:53:47.156Z,987.70
2022-09-27T13:54:47.256Z,987.67
2022-09-27T13:55:47.370Z,987.63
2022-09-27T13:56:47.412Z,987.68
2022-09-27T13:57:47.504Z,987.67
2022-09-27T13:58:47.578Z,987.68
2022-09-27T13:59:52.349Z,987.68
2022-09-27T14:00:47.818Z,987.63
2022-09-27T14:01:47.931Z,987.67
2022-09-27T14:02:47.908Z,987.66
2022-09-27T14:03:48.011Z,987.67
2022-09-27T14:04:48.038Z,987.66
2022-09-27T14:05:48.172Z,987.67
2022-09-27T14:06:48.242Z,987.70
2022-09-27T14:07:48.307Z,987.72
2022-09-27T14:08:48.400Z,987.75
2022-09-27T14:09:48.528Z,987.72
2022-09-27T14:10:48.537Z,987.68
2022-09-27T14:11:48.630Z,987.70
2022-09-27T14:12:48.740Z,987.68
2022-09-27T14:13:48.804Z,987.66
2022-09-27T14:14:48.900Z,987.70
2022-09-27T14:15:49.046Z,987.75
2022-09-27T14:16:49.100Z,987.69
2022-09-27T14:17:49.172Z,987.63
2022-09-27T14:18:49.270Z,987.79
2022-09-27T14:19:49.355Z,987.66
2022-09-27T14:20:49.449Z,987.69
2022-09-27T14:21:49.539Z,987.67
2022-09-27T14:22:49.700Z,987.72
2022-09-27T14:23:49.704Z,987.70
2022-09-27T14:24:49.800Z,987.80
2022-09-27T14:25:49.876Z,987.76
2022-09-27T14:26:50.042Z,987.84
2022-09-27T14:27:50.048Z,987.81
2022-09-27T14:28:50.147Z,987.87
2022-09-27T14:29:50.226Z,987.91
2022-09-27T14:30:50.388Z,987.88
2022-09-27T14:31:50.428Z,987.91
2022-09-27T14:32:50.500Z,987.91
2022-09-27T14:33:50.577Z,987.92
2022-09-27T14:34:50.672Z,987.95
2022-09-27T14:35:50.736Z,987.91
2022-09-27T14:36:50.820Z,987.95
2022-09-27T14:37:50.912Z,987.96
2022-09-27T14:38:50.984Z,987.93
2022-09-27T14:39:51.102Z,987.97
2022-09-27T14:40:51.202Z,987.94
2022-09-27T14:41:51.269Z,987.93
2022-09-27T14:42:51.316Z,987.92
2022-09-27T14:43:51.396Z,987.97
2022-09-27T14:44:51.474Z,987.98
2022-09-27T14:45:51.549Z,987.96
2022-09-27T14:46:51.804Z,987.98
2022-09-27T14:47:51.697Z,987.94
2022-09-27T14:48:51.784Z,987.97
2022-09-27T14:49:51.892Z,987.97
2022-09-27T14:50:51.980Z,987.98
2022-09-27T14:51:52.085Z,987.97
2022-09-27T14:52:52.167Z,988.00
2022-09-27T14:53:52.240Z,988.00
2022-09-27T14:54:52.413Z,987.96
2022-09-27T14:55:52.412Z,987.94
2022-09-27T14:56:53.608Z,987.93
2022-09-27T14:57:52.594Z,987.97
2022-09-27T14:58:52.729Z,988.03
2022-09-27T14:59:52.736Z,987.97
2022-09-27T15:00:52.828Z,988.03
2022-09-27T15:01:52.905Z,988.03
2022-09-27T15:02:53.058Z,988.05
2022-09-27T15:03:53.185Z,988.02
2022-09-27T15:04:53.190Z,988.10
2022-09-27T15:05:53.237Z,988.06
2022-09-27T15:06:53.321Z,988.10
2022-09-27T15:07:53.438Z,988.08
2022-09-27T15:08:53.516Z,988.09
2022-09-27T15:09:53.588Z,988.12
2022-09-27T15:10:53.669Z,988.10
2022-09-27T15:11:53.738Z,988.05
2022-09-27T15:12:53.840Z,988.08
2022-09-27T15:13:53.952Z,988.08
2022-09-27T15:14:54.463Z,988.01
2022-09-27T15:15:54.158Z,988.05
2022-09-27T15:16:54.207Z,988.06
2022-09-27T15:17:54.327Z,988.09
2022-09-27T15:18:54.357Z,988.08
2022-09-27T15:19:54.474Z,988.05
2022-09-27T15:20:54.544Z,988.07
2022-09-27T15:21:54.619Z,988.03
2022-09-27T15:22:54.729Z,988.04
2022-09-27T15:23:54.817Z,988.05
2022-09-27T15:24:54.897Z,988.09
2022-09-27T15:25:54.989Z,988.11
2022-09-27T15:26:55.081Z,988.08
2022-09-27T15:27:55.197Z,988.09
2022-09-27T15:28:55.241Z,988.04
2022-09-27T15:29:55.340Z,988.12
2022-09-27T15:30:55.478Z,988.11
2022-09-27T15:31:55.501Z,988.09
2022-09-27T15:32:55.601Z,988.07
2022-09-27T15:33:55.680Z,988.09
2022-09-27T15:34:55.760Z,988.09
2022-09-27T15:35:55.865Z,988.11
2022-09-27T15:36:55.937Z,988.13
2022-09-27T15:37:56.045Z,988.13
2022-09-27T15:38:56.129Z,988.12
2022-09-27T15:39:56.221Z,988.20
2022-09-27T15:40:56.349Z,988.20
2022-09-27T15:41:56.401Z,988.12
2022-09-27T15:42:56.478Z,988.26
2022-09-27T15:43:56.567Z,988.22
2022-09-27T15:44:56.588Z,988.25
2022-09-27T15:45:56.664Z,988.20
2022-09-27T15:46:56.826Z,988.20
2022-09-27T15:47:56.866Z,988.18
2022-09-27T15:48:56.917Z,988.21
2022-09-27T15:49:56.998Z,988.20
2022-09-27T15:50:57.085Z,988.22
2022-09-27T15:51:57.196Z,988.27
2022-09-27T15:52:57.276Z,988.29
2022-09-27T15:53:57.361Z,988.26
2022-09-27T15:54:57.477Z,988.30
2022-09-27T15:55:57.505Z,988.29
2022-09-27T15:56:57.633Z,988.29
2022-09-27T15:57:57.703Z,988.25
2022-09-27T15:58:57.745Z,988.28
2022-09-27T15:59:57.885Z,988.24
2022-09-27T16:00:57.973Z,988.26
2022-09-27T16:01:58.010Z,988.30
2022-09-27T16:02:58.039Z,988.29
2022-09-27T16:03:58.129Z,988.26
2022-09-27T16:04:58.217Z,988.21
2022-09-27T16:05:58.314Z,988.29
2022-09-27T16:06:58.389Z,988.34
2022-09-27T16:07:58.481Z,988.29
2022-09-27T16:08:58.610Z,988.30
2022-09-27T16:09:58.649Z,988.28
2022-09-27T16:10:58.713Z,988.29
2022-09-27T16:11:58.794Z,988.32
2022-09-27T16:12:58.902Z,988.36
2022-09-27T16:13:58.989Z,988.34
2022-09-27T16:14:59.089Z,988.39
2022-09-27T16:15:59.219Z,988.38
2022-09-27T16:16:59.197Z,988.36
2022-09-27T16:17:59.306Z,988.44
2022-09-27T16:18:59.405Z,988.42
2022-09-27T16:19:59.517Z,988.44
2022-09-27T16:20:59.558Z,988.41
2022-09-27T16:21:59.642Z,988.43
2022-09-27T16:22:59.733Z,988.51
2022-09-27T16:24:04.045Z,988.49
2022-09-27T16:24:59.925Z,988.51
2022-09-27T16:25:59.978Z,988.45
2022-09-27T16:27:00.081Z,988.47
2022-09-27T16:28:00.168Z,988.49
2022-09-27T16:29:00.249Z,988.59
2022-09-27T16:30:00.332Z,988.56
2022-09-27T16:31:00.472Z,988.55
2022-09-27T16:32:00.469Z,988.60
2022-09-27T16:33:00.585Z,988.63
2022-09-27T16:34:00.652Z,988.61
2022-09-27T16:35:00.756Z,988.62
2022-09-27T16:36:00.795Z,988.62
2022-09-27T16:37:04.844Z,988.58
2022-09-27T16:38:00.968Z,988.58
2022-09-27T16:39:01.074Z,988.61
2022-09-27T16:40:01.156Z,988.62
2022-09-27T16:41:01.289Z,988.66
2022-09-27T16:42:01.323Z,988.66
2022-09-27T16:43:01.398Z,988.67
2022-09-27T16:44:01.469Z,988.68
2022-09-27T16:45:04.818Z,988.66
2022-09-27T16:46:01.670Z,988.65
2022-09-27T16:47:01.762Z,988.64
2022-09-27T16:48:01.827Z,988.65
2022-09-27T16:49:01.920Z,988.65
2022-09-27T16:50:01.958Z,988.69
2022-09-27T16:51:02.075Z,988.69
2022-09-27T16:52:02.111Z,988.73
2022-09-27T16:53:02.185Z,988.72
2022-09-27T16:54:02.302Z,988.72
2022-09-27T16:55:02.366Z,988.65
2022-09-27T16:56:02.551Z,988.70
2022-09-27T16:57:02.544Z,988.65
2022-09-27T16:58:02.643Z,988.66
2022-09-27T16:59:02.727Z,988.62
2022-09-27T17:00:02.872Z,988.63
2022-09-27T17:01:02.997Z,988.64
2022-09-27T17:02:03.078Z,988.61
2022-09-27T17:03:03.072Z,988.60
2022-09-27T17:04:03.157Z,988.60
2022-09-27T17:05:03.242Z,988.58
2022-09-27T17:06:03.341Z,988.56
2022-09-27T17:07:03.368Z,988.60
2022-09-27T17:08:03.444Z,988.56
2022-09-27T17:09:03.505Z,988.58
2022-09-27T17:10:03.625Z,988.54
2022-09-27T17:11:03.696Z,988.51
2022-09-27T17:12:03.721Z,988.50
2022-09-27T17:13:03.821Z,988.52
2022-09-27T17:14:04.035Z,988.57
2022-09-27T17:15:03.990Z,988.53
2022-09-27T17:16:04.158Z,988.54
2022-09-27T17:17:04.173Z,988.52
2022-09-27T17:18:04.249Z,988.55
2022-09-27T17:19:04.347Z,988.50
2022-09-27T17:20:04.454Z,988.53
2022-09-27T17:21:04.585Z,988.55
2022-09-27T17:22:04.606Z,988.50
2022-09-27T17:23:04.710Z,988.51
2022-09-27T17:24:04.802Z,988.50
2022-09-27T17:25:04.867Z,988.53
2022-09-27T17:26:04.961Z,988.51
2022-09-27T17:27:05.032Z,988.52
2022-09-27T17:28:05.115Z,988.53
2022-09-27T17:29:05.191Z,988.52
2022-09-27T17:30:05.268Z,988.53
2022-09-27T17:31:05.407Z,988.51
2022-09-27T17:32:05.429Z,988.53
2022-09-27T17:33:05.503Z,988.51
2022-09-27T17:34:05.572Z,988.52
2022-09-27T17:35:05.650Z,988.54
2022-09-27T17:36:05.754Z,988.57
2022-09-27T17:37:05.855Z,988.58
2022-09-27T17:38:05.918Z,988.56
2022-09-27T17:39:06.025Z,988.54
2022-09-27T17:40:06.103Z,988.55
2022-09-27T17:41:06.170Z,988.57
2022-09-27T17:42:06.272Z,988.59
2022-09-27T17:43:06.331Z,988.59
2022-09-27T17:44:06.404Z,988.62
2022-09-27T17:45:06.510Z,988.63
2022-09-27T17:46:06.651Z,988.65
2022-09-27T17:47:06.688Z,988.69
2022-09-27T17:48:09.591Z,988.65
2022-09-27T17:49:06.855Z,988.64
2022-09-27T17:50:06.931Z,988.68
2022-09-27T17:51:07.008Z,988.71
2022-09-27T17:52:07.122Z,988.72
2022-09-27T17:53:07.202Z,988.76
2022-09-27T17:54:07.263Z,988.74
2022-09-27T17:55:07.375Z,988.74
2022-09-27T17:56:07.483Z,988.71
2022-09-27T17:57:07.554Z,988.75
2022-09-27T17:58:07.562Z,988.73
2022-09-27T17:59:07.628Z,988.76
2022-09-27T18:00:07.704Z,988.73
2022-09-27T18:01:07.780Z,988.76
2022-09-27T18:02:08.054Z,988.75
2022-09-27T18:03:07.980Z,988.75
2022-09-27T18:04:08.057Z,988.77
2022-09-27T18:05:08.146Z,988.80
2022-09-27T18:06:08.223Z,988.75
2022-09-27T18:07:08.303Z,988.77
2022-09-27T18:08:08.399Z,988.78
2022-09-27T18:09:08.523Z,988.79
2022-09-27T18:10:08.562Z,988.81
2022-09-27T18:11:08.691Z,988.79
2022-09-27T18:12:08.797Z,988.80
2022-09-27T18:13:08.827Z,988.84
2022-09-27T18:14:08.914Z,988.84
2022-09-27T18:15:08.987Z,988.87
2022-09-27T18:16:09.176Z,988.87
2022-09-27T18:17:09.147Z,988.84
2022-09-27T18:18:09.257Z,988.84
2022-09-27T18:19:09.291Z,988.86
2022-09-27T18:20:09.358Z,988.87
2022-09-27T18:21:09.424Z,988.88
2022-09-27T18:22:09.556Z,988.88
2022-09-27T18:23:09.662Z,988.89
2022-09-27T18:24:09.731Z,988.91
2022-09-27T18:25:09.744Z,988.90
2022-09-27T18:26:09.818Z,988.89
2022-09-27T18:27:09.909Z,988.92
2022-09-27T18:28:09.997Z,988.94
2022-09-27T18:29:10.071Z,988.94
2022-09-27T18:30:10.133Z,988.93
2022-09-27T18:31:10.270Z,988.95
2022-09-27T18:32:10.836Z,988.92
2022-09-27T18:33:10.391Z,988.95
2022-09-27T18:34:10.562Z,988.93
2022-09-27T18:35:10.588Z,988.97
2022-09-27T18:36:10.652Z,988.88
2022-09-27T18:37:10.747Z,988.96
2022-09-27T18:38:10.835Z,988.91
2022-09-27T18:39:10.927Z,988.95
2022-09-27T18:40:10.987Z,988.96
2022-09-27T18:41:11.069Z,988.97
2022-09-27T18:42:11.133Z,988.99
2022-09-27T18:43:11.248Z,988.93
2022-09-27T18:44:11.336Z,988.99
2022-09-27T18:45:11.424Z,988.99
2022-09-27T18:46:33.957Z,988.99
2022-09-27T18:47:11.650Z,988.94
2022-09-27T18:48:11.666Z,988.97
2022-09-27T18:49:11.777Z,989.00
2022-09-27T18:50:11.831Z,988.93
2022-09-27T18:51:11.932Z,988.92
2022-09-27T18:52:12.011Z,988.91
2022-09-27T18:53:12.094Z,988.94
2022-09-27T18:54:12.285Z,988.91
2022-09-27T18:55:12.242Z,988.94
2022-09-27T18:56:12.326Z,988.94
2022-09-27T18:57:12.400Z,988.95
2022-09-27T18:58:12.483Z,988.95
2022-09-27T18:59:12.602Z,988.95
2022-09-27T19:00:12.655Z,988.91
2022-09-27T19:01:12.801Z,988.90
2022-09-27T19:02:12.942Z,988.90
2022-09-27T19:03:12.951Z,988.90
2022-09-27T19:04:13.026Z,988.92
2022-09-27T19:05:13.131Z,988.90
2022-09-27T19:06:13.179Z,988.90
2022-09-27T19:07:13.282Z,988.92
2022-09-27T19:08:13.366Z,988.91
2022-09-27T19:09:13.572Z,988.92
2022-09-27T19:10:13.523Z,988.91
2022-09-27T19:11:13.595Z,988.90
2022-09-27T19:12:13.676Z,988.91
2022-09-27T19:13:13.766Z,988.97
2022-09-27T19:14:13.935Z,988.96
2022-09-27T19:15:13.953Z,988.93
2022-09-27T19:16:14.163Z,988.92
2022-09-27T19:17:14.114Z,988.92
2022-09-27T19:18:14.179Z,988.95
2022-09-27T19:19:14.354Z,988.92
2022-09-27T19:20:14.379Z,988.92
2022-09-27T19:21:14.455Z,988.93
2022-09-27T19:22:14.575Z,988.92
2022-09-27T19:23:15.612Z,988.93
2022-09-27T19:24:14.675Z,988.95
2022-09-27T19:25:14.768Z,988.98
2022-09-27T19:26:14.843Z,989.01
2022-09-27T19:27:14.945Z,989.00
2022-09-27T19:28:15.036Z,988.93
2022-09-27T19:29:15.188Z,988.98
2022-09-27T19:30:15.242Z,989.01
2022-09-27T19:31:15.316Z,988.99
2022-09-27T19:32:15.345Z,989.01
2022-09-27T19:33:15.422Z,988.97
2022-09-27T19:34:15.510Z,988.97
2022-09-27T19:35:15.589Z,989.02
2022-09-27T19:36:15.666Z,989.05
2022-09-27T19:37:15.732Z,988.99
2022-09-27T19:38:15.840Z,988.99
2022-09-27T19:39:16.017Z,989.00
2022-09-27T19:40:16.133Z,988.97
2022-09-27T19:41:16.215Z,989.01
2022-09-27T19:42:16.213Z,988.98
2022-09-27T19:43:16.329Z,988.96
2022-09-27T19:44:16.407Z,988.99
2022-09-27T19:45:16.475Z,988.99
2022-09-27T19:46:16.616Z,989.02
2022-09-27T19:47:16.653Z,989.01
2022-09-27T19:48:16.719Z,988.96
2022-09-27T19:49:16.963Z,988.99
2022-09-27T19:50:16.913Z,988.99
2022-09-27T19:51:17.000Z,989.01
2022-09-27T19:52:17.068Z,989.00
2022-09-27T19:53:17.160Z,989.01
2022-09-27T19:54:17.244Z,989.01
2022-09-27T19:55:17.319Z,988.99
2022-09-27T19:56:17.407Z,989.00
2022-09-27T19:57:17.491Z,988.99
2022-09-27T19:58:17.564Z,989.03
2022-09-27T19:59:18.005Z,989.06
2022-09-27T20:00:17.769Z,989.04
2022-09-27T20:01:17.833Z,989.03
2022-09-27T20:02:18.069Z,989.03
2022-09-27T20:03:18.075Z,989.06
2022-09-27T20:04:18.097Z,989.00
2022-09-27T20:05:18.149Z,989.05
2022-09-27T20:06:18.260Z,989.01
2022-09-27T20:07:18.413Z,989.02
2022-09-27T20:08:18.408Z,989.03
2022-09-27T20:09:18.508Z,989.02
2022-09-27T20:10:18.590Z,989.02
2022-09-27T20:11:18.704Z,989.04
2022-09-27T20:12:18.769Z,989.00
2022-09-27T20:13:18.887Z,989.03
2022-09-27T20:14:18.947Z,989.01
2022-09-27T20:15:19.050Z,989.03
2022-09-27T20:16:19.223Z,989.03
2022-09-27T20:17:19.399Z,988.94
2022-09-27T20:18:19.308Z,988.99
2022-09-27T20:19:19.503Z,988.98
2022-09-27T20:20:19.584Z,989.00
2022-09-27T20:21:20.008Z,988.99
2022-09-27T20:22:19.634Z,989.02
2022-09-27T20:23:19.728Z,989.01
2022-09-27T20:24:19.782Z,988.99
2022-09-27T20:25:19.869Z,988.99
2022-09-27T20:26:19.946Z,988.97
2022-09-27T20:27:20.057Z,988.99
2022-09-27T20:28:20.160Z,989.00
2022-09-27T20:29:20.220Z,988.95
2022-09-27T20:30:20.273Z,988.98
2022-09-27T20:31:20.411Z,989.00
2022-09-27T20:32:27.706Z,989.02
2022-09-27T20:33:20.535Z,989.02
2022-09-27T20:34:20.605Z,989.02
2022-09-27T20:35:20.682Z,989.02
2022-09-27T20:36:20.763Z,989.00
2022-09-27T20:37:20.860Z,988.97
2022-09-27T20:38:20.940Z,988.99
2022-09-27T20:39:21.004Z,989.01
2022-09-27T20:40:21.114Z,988.99
2022-09-27T20:41:21.167Z,988.98
2022-09-27T20:42:21.295Z,988.98
2022-09-27T20:43:21.332Z,988.92
2022-09-27T20:44:21.425Z,988.94
2022-09-27T20:45:21.505Z,988.90
2022-09-27T20:46:21.633Z,988.92
2022-09-27T20:47:21.686Z,988.94
2022-09-27T20:48:21.759Z,988.92
2022-09-27T20:49:21.819Z,988.94
2022-09-27T20:50:21.916Z,988.94
2022-09-27T20:51:22.017Z,988.92
2022-09-27T20:52:22.163Z,988.95
2022-09-27T20:53:22.196Z,988.93
2022-09-27T20:54:22.305Z,988.92
2022-09-27T20:55:22.374Z,988.93
2022-09-27T20:56:22.478Z,988.95
2022-09-27T20:57:31.166Z,988.96
2022-09-27T20:58:22.606Z,988.97
2022-09-27T20:59:23.093Z,988.95
2022-09-27T21:00:22.761Z,988.98
2022-09-27T21:01:22.928Z,988.99
2022-09-27T21:02:22.975Z,988.96
2022-09-27T21:03:23.042Z,988.97
2022-09-27T21:04:23.102Z,988.94
2022-09-27T21:05:23.184Z,988.98
2022-09-27T21:06:23.267Z,988.96
2022-09-27T21:07:23.332Z,988.96
2022-09-27T21:08:23.415Z,988.96
2022-09-27T21:09:23.503Z,988.94
2022-09-27T21:10:23.570Z,988.96
2022-09-27T21:11:23.634Z,988.98
2022-09-27T21:12:23.728Z,989.02
2022-09-27T21:13:23.870Z,988.99
2022-09-27T21:14:23.902Z,989.00
2022-09-27T21:15:23.986Z,989.01
2022-09-27T21:16:24.161Z,989.01
2022-09-27T21:17:24.187Z,989.04
2022-09-27T21:18:24.347Z,989.02
2022-09-27T21:19:24.344Z,989.00
2022-09-27T21:20:24.475Z,988.99
2022-09-27T21:21:24.518Z,989.05
2022-09-27T21:22:24.622Z,989.03
2022-09-27T21:23:24.722Z,989.03
2022-09-27T21:24:24.803Z,989.05
2022-09-27T21:25:24.898Z,989.02
2022-09-27T21:26:24.999Z,989.01
2022-09-27T21:27:25.059Z,989.02
2022-09-27T21:28:25.218Z,989.01
2022-09-27T21:29:25.228Z,989.01
2022-09-27T21:30:25.305Z,989.04
2022-09-27T21:31:25.445Z,989.06
2022-09-27T21:32:25.472Z,989.00
2022-09-27T21:33:25.583Z,988.97
2022-09-27T21:34:25.644Z,988.93
2022-09-27T21:35:25.739Z,988.98
2022-09-27T21:36:25.839Z,989.01
2022-09-27T21:37:25.943Z,989.01
2022-09-27T21:38:26.104Z,989.02
2022-09-27T21:39:26.090Z,989.01
2022-09-27T21:40:26.169Z,989.01
2022-09-27T21:41:26.235Z,989.00
2022-09-27T21:42:26.307Z,989.04
2022-09-27T21:43:26.384Z,989.00
2022-09-27T21:44:26.519Z,989.01
2022-09-27T21:45:26.570Z,989.00
2022-09-27T21:46:26.727Z,988.99
2022-09-27T21:47:26.776Z,989.03
2022-09-27T21:48:26.855Z,989.02
2022-09-27T21:49:26.981Z,988.99
2022-09-27T21:50:27.020Z,989.01
2022-09-27T21:51:27.108Z,989.04
2022-09-27T21:52:27.211Z,989.04
2022-09-27T21:53:27.283Z,989.01
2022-09-27T21:54:27.374Z,989.02
2022-09-27T21:55:27.459Z,989.00
2022-09-27T21:56:27.540Z,988.98
2022-09-27T21:57:27.609Z,988.98
2022-09-27T21:58:27.707Z,989.01
2022-09-27T21:59:27.827Z,989.00
2022-09-27T22:00:27.960Z,989.00
2022-09-27T22:01:27.967Z,989.05
2022-09-27T22:02:28.139Z,988.99
2022-09-27T22:03:28.124Z,989.02
2022-09-27T22:04:28.258Z,989.03
2022-09-27T22:05:28.320Z,988.99
2022-09-27T22:06:28.379Z,989.00
2022-09-27T22:07:28.499Z,988.99
2022-09-27T22:08:28.609Z,989.01
2022-09-27T22:09:28.655Z,989.02
2022-09-27T22:10:28.764Z,988.98
2022-09-27T22:11:28.813Z,988.97
2022-09-27T22:12:28.897Z,988.97
2022-09-27T22:13:28.968Z,988.99
2022-09-27T22:14:29.096Z,988.99
2022-09-27T22:15:29.148Z,988.96
2022-09-27T22:16:29.272Z,988.96
2022-09-27T22:17:29.316Z,988.99
2022-09-27T22:18:29.416Z,988.99
2022-09-27T22:19:29.509Z,988.99
2022-09-27T22:20:29.566Z,989.00
2022-09-27T22:21:29.641Z,988.96
2022-09-27T22:22:29.765Z,989.04
2022-09-27T22:23:29.808Z,989.04
2022-09-27T22:24:29.975Z,989.05
2022-09-27T22:25:29.961Z,989.02
2022-09-27T22:26:30.051Z,989.01
2022-09-27T22:27:30.168Z,989.02
2022-09-27T22:28:30.256Z,989.04
2022-09-27T22:29:30.363Z,989.00
2022-09-27T22:30:30.419Z,989.01
2022-09-27T22:31:30.520Z,989.00
2022-09-27T22:32:30.572Z,988.98
2022-09-27T22:33:30.644Z,989.01
2022-09-27T22:34:30.745Z,989.00
2022-09-27T22:35:30.804Z,988.97
2022-09-27T22:36:30.891Z,989.00
2022-09-27T22:37:31.016Z,988.99
2022-09-27T22:38:31.040Z,989.02
2022-09-27T22:39:31.173Z,989.00
2022-09-27T22:40:31.333Z,989.00
2022-09-27T22:41:31.346Z,989.00
2022-09-27T22:42:31.401Z,988.99
2022-09-27T22:43:31.464Z,989.02
2022-09-27T22:44:31.557Z,989.00
2022-09-27T22:45:31.698Z,989.01
2022-09-27T22:46:31.764Z,989.01
2022-09-27T22:47:31.827Z,989.00
2022-09-27T22:48:31.975Z,989.01
2022-09-27T22:49:32.012Z,989.00
2022-09-27T22:50:32.077Z,988.96
2022-09-27T22:51:32.173Z,989.03
2022-09-27T22:52:32.305Z,988.96
2022-09-27T22:53:32.297Z,988.96
2022-09-27T22:54:32.384Z,988.92
2022-09-27T22:55:32.516Z,988.91
2022-09-27T22:56:32.569Z,988.91
2022-09-27T22:57:32.618Z,988.94
2022-09-27T22:58:32.728Z,988.92
2022-09-27T22:59:32.783Z,988.92
2022-09-27T23:00:32.919Z,988.93
2022-09-27T23:01:32.952Z,988.90
2022-09-27T23:02:32.997Z,988.93
2022-09-27T23:03:33.199Z,988.91
2022-09-27T23:04:33.177Z,988.86
2022-09-27T23:05:33.265Z,988.83
2022-09-27T23:06:33.367Z,988.85
2022-09-27T23:07:33.456Z,988.83
2022-09-27T23:08:33.544Z,988.82
2022-09-27T23:09:33.629Z,988.78
2022-09-27T23:10:33.717Z,988.79
2022-09-27T23:11:33.846Z,988.76
2022-09-27T23:12:33.981Z,988.79
2022-09-27T23:13:34.086Z,988.79
2022-09-27T23:14:34.069Z,988.81
2022-09-27T23:15:34.136Z,988.76
2022-09-27T23:16:34.298Z,988.80
2022-09-27T23:17:34.329Z,988.77
2022-09-27T23:18:34.413Z,988.75
2022-09-27T23:19:34.520Z,988.82
2022-09-27T23:20:34.602Z,988.77
2022-09-27T23:21:34.646Z,988.77
2022-09-27T23:22:34.732Z,988.74
2022-09-27T23:23:34.841Z,988.77
2022-09-27T23:24:34.925Z,988.77
2022-09-27T23:25:34.989Z,988.77
2022-09-27T23:26:35.094Z,988.78
2022-09-27T23:27:35.169Z,988.80
2022-09-27T23:28:35.255Z,988.77
2022-09-27T23:29:35.321Z,988.78
2022-09-27T23:30:35.454Z,988.73
2022-09-27T23:31:35.568Z,988.71
2022-09-27T23:32:35.570Z,988.72
2022-09-27T23:33:35.634Z,988.67
2022-09-27T23:34:35.705Z,988.71